sensor_id;sensor_type;location;lat;lon;timestamp;P1;durP1;ratioP1;P2;durP2;ratioP2
9763;SDS011;4921;43.214;27.936;2024-01-07T00:01:00;9.20;;;3.63;;
9763;SDS011;4921;43.214;27.936;2024-01-07T00:03:27;8.20;;;3.55;;
9763;SDS011;4921;43.214;27.936;2024-01-07T00:05:52;9.73;;;3.38;;
9763;SDS011;4921;43.214;27.936;2024-01-07T00:08:18;11.18;;;4.05;;
9763;SDS011;4921;43.214;27.936;2024-01-07T00:10:43;10.90;;;3.88;;
9763;SDS011;4921;43.214;27.936;2024-01-07T00:13:09;8.90;;;3.97;;
9763;SDS011;4921;43.214;27.936;2024-01-07T00:15:34;6.35;;;3.05;;
9763;SDS011;4921;43.214;27.936;2024-01-07T00:18:00;14.98;;;3.92;;
9763;SDS011;4921;43.214;27.936;2024-01-07T00:20:25;14.25;;;5.32;;
9763;SDS011;4921;43.214;27.936;2024-01-07T00:22:51;7.38;;;3.60;;
9763;SDS011;4921;43.214;27.936;2024-01-07T00:25:16;13.55;;;4.78;;
9763;SDS011;4921;43.214;27.936;2024-01-07T00:27:43;9.90;;;3.70;;
9763;SDS011;4921;43.214;27.936;2024-01-07T00:30:09;9.35;;;4.63;;
9763;SDS011;4921;43.214;27.936;2024-01-07T00:32:35;11.70;;;3.90;;
9763;SDS011;4921;43.214;27.936;2024-01-07T00:35:01;10.40;;;4.07;;
9763;SDS011;4921;43.214;27.936;2024-01-07T00:37:28;9.52;;;4.05;;
9763;SDS011;4921;43.214;27.936;2024-01-07T00:39:53;12.90;;;4.10;;
9763;SDS011;4921;43.214;27.936;2024-01-07T00:42:20;9.55;;;3.92;;
9763;SDS011;4921;43.214;27.936;2024-01-07T00:44:46;12.88;;;3.75;;
9763;SDS011;4921;43.214;27.936;2024-01-07T00:47:11;11.40;;;4.50;;
9763;SDS011;4921;43.214;27.936;2024-01-07T00:49:37;10.52;;;3.75;;
9763;SDS011;4921;43.214;27.936;2024-01-07T00:52:04;7.45;;;3.40;;
9763;SDS011;4921;43.214;27.936;2024-01-07T00:54:30;10.15;;;4.35;;
9763;SDS011;4921;43.214;27.936;2024-01-07T00:56:55;6.82;;;2.67;;
9763;SDS011;4921;43.214;27.936;2024-01-07T00:59:21;13.80;;;4.55;;
9763;SDS011;4921;43.214;27.936;2024-01-07T01:01:47;8.70;;;3.38;;
9763;SDS011;4921;43.214;27.936;2024-01-07T01:04:12;11.50;;;3.45;;
9763;SDS011;4921;43.214;27.936;2024-01-07T01:06:38;8.77;;;3.50;;
9763;SDS011;4921;43.214;27.936;2024-01-07T01:09:04;9.57;;;2.90;;
9763;SDS011;4921;43.214;27.936;2024-01-07T01:11:29;5.18;;;2.80;;
9763;SDS011;4921;43.214;27.936;2024-01-07T01:13:55;7.53;;;2.90;;
9763;SDS011;4921;43.214;27.936;2024-01-07T01:16:20;10.85;;;2.92;;
9763;SDS011;4921;43.214;27.936;2024-01-07T01:18:46;9.43;;;2.97;;
9763;SDS011;4921;43.214;27.936;2024-01-07T01:21:30;8.38;;;3.75;;
9763;SDS011;4921;43.214;27.936;2024-01-07T01:23:55;9.40;;;3.80;;
9763;SDS011;4921;43.214;27.936;2024-01-07T01:26:21;9.02;;;3.40;;
9763;SDS011;4921;43.214;27.936;2024-01-07T01:28:46;7.75;;;3.20;;
9763;SDS011;4921;43.214;27.936;2024-01-07T01:31:12;10.98;;;4.75;;
9763;SDS011;4921;43.214;27.936;2024-01-07T01:33:39;11.30;;;3.75;;
9763;SDS011;4921;43.214;27.936;2024-01-07T01:36:05;10.88;;;4.00;;
9763;SDS011;4921;43.214;27.936;2024-01-07T01:38:31;8.05;;;3.75;;
9763;SDS011;4921;43.214;27.936;2024-01-07T01:40:57;12.88;;;4.15;;
9763;SDS011;4921;43.214;27.936;2024-01-07T01:43:26;12.10;;;3.63;;
9763;SDS011;4921;43.214;27.936;2024-01-07T01:45:55;9.23;;;3.72;;
9763;SDS011;4921;43.214;27.936;2024-01-07T01:48:22;10.15;;;3.58;;
9763;SDS011;4921;43.214;27.936;2024-01-07T01:50:49;18.08;;;4.72;;
9763;SDS011;4921;43.214;27.936;2024-01-07T01:53:15;10.40;;;4.13;;
9763;SDS011;4921;43.214;27.936;2024-01-07T01:55:41;10.07;;;3.92;;
9763;SDS011;4921;43.214;27.936;2024-01-07T01:58:11;9.73;;;4.65;;
9763;SDS011;4921;43.214;27.936;2024-01-07T02:00:39;12.52;;;4.43;;
9763;SDS011;4921;43.214;27.936;2024-01-07T02:03:05;10.85;;;4.15;;
9763;SDS011;4921;43.214;27.936;2024-01-07T02:05:30;7.95;;;3.88;;
9763;SDS011;4921;43.214;27.936;2024-01-07T02:07:57;11.02;;;4.03;;
9763;SDS011;4921;43.214;27.936;2024-01-07T02:10:23;11.07;;;3.97;;
9763;SDS011;4921;43.214;27.936;2024-01-07T02:12:49;9.18;;;3.63;;
9763;SDS011;4921;43.214;27.936;2024-01-07T02:15:15;11.25;;;3.85;;
9763;SDS011;4921;43.214;27.936;2024-01-07T02:17:40;12.40;;;3.95;;
9763;SDS011;4921;43.214;27.936;2024-01-07T02:20:07;14.43;;;4.18;;
9763;SDS011;4921;43.214;27.936;2024-01-07T02:22:33;13.02;;;4.03;;
9763;SDS011;4921;43.214;27.936;2024-01-07T02:24:58;11.13;;;4.32;;
9763;SDS011;4921;43.214;27.936;2024-01-07T02:27:24;9.35;;;4.40;;
9763;SDS011;4921;43.214;27.936;2024-01-07T02:29:49;6.65;;;3.65;;
9763;SDS011;4921;43.214;27.936;2024-01-07T02:32:15;8.73;;;3.85;;
9763;SDS011;4921;43.214;27.936;2024-01-07T02:34:40;8.55;;;4.60;;
9763;SDS011;4921;43.214;27.936;2024-01-07T02:37:06;10.95;;;3.40;;
9763;SDS011;4921;43.214;27.936;2024-01-07T02:39:31;6.32;;;3.25;;
9763;SDS011;4921;43.214;27.936;2024-01-07T02:41:57;7.68;;;3.63;;
9763;SDS011;4921;43.214;27.936;2024-01-07T02:44:22;9.88;;;4.43;;
9763;SDS011;4921;43.214;27.936;2024-01-07T02:46:48;10.50;;;3.35;;
9763;SDS011;4921;43.214;27.936;2024-01-07T02:49:13;9.00;;;3.65;;
9763;SDS011;4921;43.214;27.936;2024-01-07T02:51:39;7.65;;;3.78;;
9763;SDS011;4921;43.214;27.936;2024-01-07T02:54:04;12.82;;;4.03;;
9763;SDS011;4921;43.214;27.936;2024-01-07T02:56:30;9.10;;;4.13;;
9763;SDS011;4921;43.214;27.936;2024-01-07T02:58:56;10.85;;;3.88;;
9763;SDS011;4921;43.214;27.936;2024-01-07T03:01:21;12.90;;;4.60;;
9763;SDS011;4921;43.214;27.936;2024-01-07T03:03:48;9.90;;;3.75;;
9763;SDS011;4921;43.214;27.936;2024-01-07T03:06:13;12.55;;;3.65;;
9763;SDS011;4921;43.214;27.936;2024-01-07T03:08:39;9.82;;;3.80;;
9763;SDS011;4921;43.214;27.936;2024-01-07T03:11:05;7.90;;;3.42;;
9763;SDS011;4921;43.214;27.936;2024-01-07T03:13:31;13.40;;;4.20;;
9763;SDS011;4921;43.214;27.936;2024-01-07T03:15:57;7.25;;;3.47;;
9763;SDS011;4921;43.214;27.936;2024-01-07T03:18:23;8.70;;;3.92;;
9763;SDS011;4921;43.214;27.936;2024-01-07T03:20:48;9.73;;;3.95;;
9763;SDS011;4921;43.214;27.936;2024-01-07T03:23:14;7.43;;;4.30;;
9763;SDS011;4921;43.214;27.936;2024-01-07T03:25:39;12.05;;;4.00;;
9763;SDS011;4921;43.214;27.936;2024-01-07T03:28:05;6.88;;;3.53;;
9763;SDS011;4921;43.214;27.936;2024-01-07T03:30:30;8.57;;;3.88;;
9763;SDS011;4921;43.214;27.936;2024-01-07T03:32:56;8.75;;;3.47;;
9763;SDS011;4921;43.214;27.936;2024-01-07T03:35:21;7.93;;;4.32;;
9763;SDS011;4921;43.214;27.936;2024-01-07T03:37:49;6.25;;;3.40;;
9763;SDS011;4921;43.214;27.936;2024-01-07T03:40:15;10.82;;;3.78;;
9763;SDS011;4921;43.214;27.936;2024-01-07T03:42:40;8.82;;;4.15;;
9763;SDS011;4921;43.214;27.936;2024-01-07T03:45:06;8.48;;;3.65;;
9763;SDS011;4921;43.214;27.936;2024-01-07T03:47:32;10.50;;;4.32;;
9763;SDS011;4921;43.214;27.936;2024-01-07T03:49:57;7.25;;;3.60;;
9763;SDS011;4921;43.214;27.936;2024-01-07T03:52:23;11.45;;;4.13;;
9763;SDS011;4921;43.214;27.936;2024-01-07T03:54:48;7.53;;;3.72;;
9763;SDS011;4921;43.214;27.936;2024-01-07T03:57:14;11.07;;;3.72;;
9763;SDS011;4921;43.214;27.936;2024-01-07T03:59:39;6.45;;;3.70;;
9763;SDS011;4921;43.214;27.936;2024-01-07T04:02:05;9.90;;;4.10;;
9763;SDS011;4921;43.214;27.936;2024-01-07T04:04:31;9.30;;;4.10;;
9763;SDS011;4921;43.214;27.936;2024-01-07T04:06:57;8.10;;;4.03;;
9763;SDS011;4921;43.214;27.936;2024-01-07T04:09:22;8.40;;;4.00;;
9763;SDS011;4921;43.214;27.936;2024-01-07T04:11:48;11.75;;;4.10;;
9763;SDS011;4921;43.214;27.936;2024-01-07T04:14:17;9.48;;;3.97;;
9763;SDS011;4921;43.214;27.936;2024-01-07T04:16:42;11.02;;;4.50;;
9763;SDS011;4921;43.214;27.936;2024-01-07T04:19:08;7.50;;;3.83;;
9763;SDS011;4921;43.214;27.936;2024-01-07T04:21:34;9.13;;;4.72;;
9763;SDS011;4921;43.214;27.936;2024-01-07T04:24:00;9.40;;;3.67;;
9763;SDS011;4921;43.214;27.936;2024-01-07T04:26:26;11.45;;;3.92;;
9763;SDS011;4921;43.214;27.936;2024-01-07T04:28:52;9.75;;;3.92;;
9763;SDS011;4921;43.214;27.936;2024-01-07T04:31:17;9.88;;;4.30;;
9763;SDS011;4921;43.214;27.936;2024-01-07T04:33:43;11.38;;;4.03;;
9763;SDS011;4921;43.214;27.936;2024-01-07T04:36:08;14.52;;;4.35;;
9763;SDS011;4921;43.214;27.936;2024-01-07T04:38:34;9.57;;;3.78;;
9763;SDS011;4921;43.214;27.936;2024-01-07T04:41:00;12.32;;;4.38;;
9763;SDS011;4921;43.214;27.936;2024-01-07T04:43:25;9.40;;;3.90;;
9763;SDS011;4921;43.214;27.936;2024-01-07T04:45:51;11.15;;;3.95;;
9763;SDS011;4921;43.214;27.936;2024-01-07T04:48:17;9.07;;;3.88;;
9763;SDS011;4921;43.214;27.936;2024-01-07T04:50:42;9.32;;;3.83;;
9763;SDS011;4921;43.214;27.936;2024-01-07T04:53:08;8.18;;;3.80;;
9763;SDS011;4921;43.214;27.936;2024-01-07T04:55:34;8.25;;;4.03;;
9763;SDS011;4921;43.214;27.936;2024-01-07T04:57:59;7.43;;;3.80;;
9763;SDS011;4921;43.214;27.936;2024-01-07T05:00:26;10.02;;;4.15;;
9763;SDS011;4921;43.214;27.936;2024-01-07T05:02:52;9.35;;;3.80;;
9763;SDS011;4921;43.214;27.936;2024-01-07T05:05:17;7.78;;;3.92;;
9763;SDS011;4921;43.214;27.936;2024-01-07T05:07:43;8.32;;;4.22;;
9763;SDS011;4921;43.214;27.936;2024-01-07T05:10:08;10.98;;;4.00;;
9763;SDS011;4921;43.214;27.936;2024-01-07T05:12:34;9.63;;;3.90;;
9763;SDS011;4921;43.214;27.936;2024-01-07T05:15:00;12.32;;;4.22;;
9763;SDS011;4921;43.214;27.936;2024-01-07T05:17:25;11.45;;;4.20;;
9763;SDS011;4921;43.214;27.936;2024-01-07T05:19:51;9.80;;;4.03;;
9763;SDS011;4921;43.214;27.936;2024-01-07T05:22:16;15.52;;;4.13;;
9763;SDS011;4921;43.214;27.936;2024-01-07T05:24:42;12.18;;;4.78;;
9763;SDS011;4921;43.214;27.936;2024-01-07T05:27:08;10.93;;;4.30;;
9763;SDS011;4921;43.214;27.936;2024-01-07T05:29:34;8.88;;;4.18;;
9763;SDS011;4921;43.214;27.936;2024-01-07T05:32:00;10.43;;;4.60;;
9763;SDS011;4921;43.214;27.936;2024-01-07T05:34:27;12.82;;;4.55;;
9763;SDS011;4921;43.214;27.936;2024-01-07T05:36:52;8.57;;;3.92;;
9763;SDS011;4921;43.214;27.936;2024-01-07T05:39:18;10.40;;;4.40;;
9763;SDS011;4921;43.214;27.936;2024-01-07T05:41:44;10.82;;;4.15;;
9763;SDS011;4921;43.214;27.936;2024-01-07T05:44:11;12.73;;;4.40;;
9763;SDS011;4921;43.214;27.936;2024-01-07T05:46:40;10.60;;;4.30;;
9763;SDS011;4921;43.214;27.936;2024-01-07T05:49:06;9.68;;;4.35;;
9763;SDS011;4921;43.214;27.936;2024-01-07T05:51:32;11.88;;;4.30;;
9763;SDS011;4921;43.214;27.936;2024-01-07T05:53:57;10.77;;;4.25;;
9763;SDS011;4921;43.214;27.936;2024-01-07T05:56:23;9.90;;;4.38;;
9763;SDS011;4921;43.214;27.936;2024-01-07T05:58:48;13.05;;;4.93;;
9763;SDS011;4921;43.214;27.936;2024-01-07T06:01:20;9.75;;;4.47;;
9763;SDS011;4921;43.214;27.936;2024-01-07T06:03:47;13.55;;;4.68;;
9763;SDS011;4921;43.214;27.936;2024-01-07T06:06:13;9.82;;;4.28;;
9763;SDS011;4921;43.214;27.936;2024-01-07T06:08:40;15.80;;;4.65;;
9763;SDS011;4921;43.214;27.936;2024-01-07T06:11:06;16.83;;;5.00;;
9763;SDS011;4921;43.214;27.936;2024-01-07T06:13:32;10.73;;;4.68;;
9763;SDS011;4921;43.214;27.936;2024-01-07T06:15:57;6.93;;;3.53;;
9763;SDS011;4921;43.214;27.936;2024-01-07T06:18:23;11.50;;;4.50;;
9763;SDS011;4921;43.214;27.936;2024-01-07T06:20:48;10.00;;;4.78;;
9763;SDS011;4921;43.214;27.936;2024-01-07T06:23:14;11.57;;;4.68;;
9763;SDS011;4921;43.214;27.936;2024-01-07T06:25:39;9.15;;;4.25;;
9763;SDS011;4921;43.214;27.936;2024-01-07T06:28:05;10.70;;;3.88;;
9763;SDS011;4921;43.214;27.936;2024-01-07T06:30:31;8.35;;;3.90;;
9763;SDS011;4921;43.214;27.936;2024-01-07T06:32:57;10.38;;;4.28;;
9763;SDS011;4921;43.214;27.936;2024-01-07T06:35:22;11.73;;;4.30;;
9763;SDS011;4921;43.214;27.936;2024-01-07T06:37:48;11.07;;;4.20;;
9763;SDS011;4921;43.214;27.936;2024-01-07T06:40:13;10.02;;;4.53;;
9763;SDS011;4921;43.214;27.936;2024-01-07T06:42:39;10.80;;;4.70;;
9763;SDS011;4921;43.214;27.936;2024-01-07T06:45:06;10.55;;;4.40;;
9763;SDS011;4921;43.214;27.936;2024-01-07T06:47:32;12.18;;;4.13;;
9763;SDS011;4921;43.214;27.936;2024-01-07T06:49:57;11.55;;;4.63;;
9763;SDS011;4921;43.214;27.936;2024-01-07T06:52:23;9.38;;;4.25;;
9763;SDS011;4921;43.214;27.936;2024-01-07T06:54:48;11.77;;;3.95;;
9763;SDS011;4921;43.214;27.936;2024-01-07T06:57:14;10.57;;;4.70;;
9763;SDS011;4921;43.214;27.936;2024-01-07T06:59:39;9.43;;;3.95;;
9763;SDS011;4921;43.214;27.936;2024-01-07T07:02:05;9.50;;;4.30;;
9763;SDS011;4921;43.214;27.936;2024-01-07T07:04:30;13.10;;;4.95;;
9763;SDS011;4921;43.214;27.936;2024-01-07T07:06:56;10.65;;;4.10;;
9763;SDS011;4921;43.214;27.936;2024-01-07T07:09:22;11.48;;;3.83;;
9763;SDS011;4921;43.214;27.936;2024-01-07T07:11:48;12.18;;;4.13;;
9763;SDS011;4921;43.214;27.936;2024-01-07T07:14:14;12.13;;;3.72;;
9763;SDS011;4921;43.214;27.936;2024-01-07T07:16:39;9.02;;;3.72;;
9763;SDS011;4921;43.214;27.936;2024-01-07T07:19:05;13.77;;;3.20;;
9763;SDS011;4921;43.214;27.936;2024-01-07T07:21:30;11.85;;;3.60;;
9763;SDS011;4921;43.214;27.936;2024-01-07T07:23:56;7.82;;;3.55;;
9763;SDS011;4921;43.214;27.936;2024-01-07T07:26:21;7.68;;;2.65;;
9763;SDS011;4921;43.214;27.936;2024-01-07T07:28:47;10.38;;;2.85;;
9763;SDS011;4921;43.214;27.936;2024-01-07T07:31:13;10.80;;;2.85;;
9763;SDS011;4921;43.214;27.936;2024-01-07T07:33:39;6.70;;;2.72;;
9763;SDS011;4921;43.214;27.936;2024-01-07T07:36:05;9.35;;;3.10;;
9763;SDS011;4921;43.214;27.936;2024-01-07T07:38:31;10.55;;;2.78;;
9763;SDS011;4921;43.214;27.936;2024-01-07T07:40:56;7.75;;;2.92;;
9763;SDS011;4921;43.214;27.936;2024-01-07T07:43:22;9.80;;;3.05;;
9763;SDS011;4921;43.214;27.936;2024-01-07T07:45:47;12.93;;;3.25;;
9763;SDS011;4921;43.214;27.936;2024-01-07T07:48:13;10.40;;;2.78;;
9763;SDS011;4921;43.214;27.936;2024-01-07T07:50:39;8.65;;;3.60;;
9763;SDS011;4921;43.214;27.936;2024-01-07T07:53:05;10.20;;;3.65;;
9763;SDS011;4921;43.214;27.936;2024-01-07T07:55:31;8.68;;;2.65;;
9763;SDS011;4921;43.214;27.936;2024-01-07T07:57:57;13.18;;;3.33;;
9763;SDS011;4921;43.214;27.936;2024-01-07T08:00:23;6.82;;;2.67;;
9763;SDS011;4921;43.214;27.936;2024-01-07T08:02:49;10.15;;;3.33;;
9763;SDS011;4921;43.214;27.936;2024-01-07T08:05:15;6.10;;;2.80;;
9763;SDS011;4921;43.214;27.936;2024-01-07T08:07:41;9.57;;;2.85;;
9763;SDS011;4921;43.214;27.936;2024-01-07T08:10:07;8.23;;;2.40;;
9763;SDS011;4921;43.214;27.936;2024-01-07T08:12:33;4.00;;;1.48;;
9763;SDS011;4921;43.214;27.936;2024-01-07T08:14:59;4.75;;;2.00;;
9763;SDS011;4921;43.214;27.936;2024-01-07T08:17:24;7.38;;;2.53;;
9763;SDS011;4921;43.214;27.936;2024-01-07T08:19:50;9.82;;;2.00;;
9763;SDS011;4921;43.214;27.936;2024-01-07T08:22:16;8.57;;;1.60;;
9763;SDS011;4921;43.214;27.936;2024-01-07T08:24:41;6.10;;;1.65;;
9763;SDS011;4921;43.214;27.936;2024-01-07T08:27:07;3.92;;;0.80;;
9763;SDS011;4921;43.214;27.936;2024-01-07T08:29:33;4.78;;;1.02;;
9763;SDS011;4921;43.214;27.936;2024-01-07T08:32:00;6.53;;;1.15;;
9763;SDS011;4921;43.214;27.936;2024-01-07T08:34:26;5.03;;;1.10;;
9763;SDS011;4921;43.214;27.936;2024-01-07T08:36:52;3.30;;;0.90;;
9763;SDS011;4921;43.214;27.936;2024-01-07T08:39:19;6.45;;;1.00;;
9763;SDS011;4921;43.214;27.936;2024-01-07T08:41:44;4.13;;;1.20;;
9763;SDS011;4921;43.214;27.936;2024-01-07T08:44:10;3.78;;;0.80;;
9763;SDS011;4921;43.214;27.936;2024-01-07T08:46:36;4.00;;;0.70;;
9763;SDS011;4921;43.214;27.936;2024-01-07T08:49:02;4.30;;;1.00;;
9763;SDS011;4921;43.214;27.936;2024-01-07T08:51:28;2.42;;;0.90;;
9763;SDS011;4921;43.214;27.936;2024-01-07T08:53:57;3.70;;;0.73;;
9763;SDS011;4921;43.214;27.936;2024-01-07T08:56:23;10.80;;;1.58;;
9763;SDS011;4921;43.214;27.936;2024-01-07T08:58:50;3.55;;;0.73;;
9763;SDS011;4921;43.214;27.936;2024-01-07T09:01:17;6.53;;;0.80;;
9763;SDS011;4921;43.214;27.936;2024-01-07T09:03:42;4.28;;;0.57;;
9763;SDS011;4921;43.214;27.936;2024-01-07T09:06:08;5.25;;;0.80;;
9763;SDS011;4921;43.214;27.936;2024-01-07T09:08:34;3.83;;;0.52;;
9763;SDS011;4921;43.214;27.936;2024-01-07T09:11:03;7.75;;;0.80;;
9763;SDS011;4921;43.214;27.936;2024-01-07T09:13:31;4.85;;;1.00;;
9763;SDS011;4921;43.214;27.936;2024-01-07T09:15:57;5.40;;;1.02;;
9763;SDS011;4921;43.214;27.936;2024-01-07T09:18:22;7.20;;;1.20;;
9763;SDS011;4921;43.214;27.936;2024-01-07T09:20:48;9.55;;;1.05;;
9763;SDS011;4921;43.214;27.936;2024-01-07T09:23:13;6.35;;;1.05;;
9763;SDS011;4921;43.214;27.936;2024-01-07T09:25:40;6.80;;;1.20;;
9763;SDS011;4921;43.214;27.936;2024-01-07T09:28:07;13.07;;;1.33;;
9763;SDS011;4921;43.214;27.936;2024-01-07T09:30:32;14.70;;;2.75;;
9763;SDS011;4921;43.214;27.936;2024-01-07T09:32:58;10.45;;;1.48;;
9763;SDS011;4921;43.214;27.936;2024-01-07T09:35:23;10.68;;;1.40;;
9763;SDS011;4921;43.214;27.936;2024-01-07T09:37:49;10.57;;;2.03;;
9763;SDS011;4921;43.214;27.936;2024-01-07T09:40:18;13.48;;;1.75;;
9763;SDS011;4921;43.214;27.936;2024-01-07T09:42:46;11.02;;;2.28;;
9763;SDS011;4921;43.214;27.936;2024-01-07T09:45:13;14.55;;;2.63;;
9763;SDS011;4921;43.214;27.936;2024-01-07T09:47:42;13.90;;;2.55;;
9763;SDS011;4921;43.214;27.936;2024-01-07T09:50:12;13.00;;;2.20;;
9763;SDS011;4921;43.214;27.936;2024-01-07T09:52:38;12.40;;;1.80;;
9763;SDS011;4921;43.214;27.936;2024-01-07T09:55:09;9.13;;;2.03;;
9763;SDS011;4921;43.214;27.936;2024-01-07T09:57:38;10.00;;;1.80;;
9763;SDS011;4921;43.214;27.936;2024-01-07T10:00:06;13.80;;;1.85;;
9763;SDS011;4921;43.214;27.936;2024-01-07T10:02:33;13.32;;;2.28;;
9763;SDS011;4921;43.214;27.936;2024-01-07T10:04:59;19.88;;;2.58;;
9763;SDS011;4921;43.214;27.936;2024-01-07T10:07:24;13.20;;;2.95;;
9763;SDS011;4921;43.214;27.936;2024-01-07T10:09:50;15.15;;;2.75;;
9763;SDS011;4921;43.214;27.936;2024-01-07T10:12:16;13.43;;;2.17;;
9763;SDS011;4921;43.214;27.936;2024-01-07T10:14:42;13.05;;;2.22;;
9763;SDS011;4921;43.214;27.936;2024-01-07T10:17:16;16.55;;;2.88;;
9763;SDS011;4921;43.214;27.936;2024-01-07T10:19:45;13.57;;;1.73;;
9763;SDS011;4921;43.214;27.936;2024-01-07T10:22:14;14.23;;;2.60;;
9763;SDS011;4921;43.214;27.936;2024-01-07T10:24:41;13.02;;;3.17;;
9763;SDS011;4921;43.214;27.936;2024-01-07T10:27:08;15.50;;;2.30;;
9763;SDS011;4921;43.214;27.936;2024-01-07T10:29:35;16.20;;;3.47;;
9763;SDS011;4921;43.214;27.936;2024-01-07T10:32:01;18.67;;;3.03;;
9763;SDS011;4921;43.214;27.936;2024-01-07T10:34:33;15.05;;;2.30;;
9763;SDS011;4921;43.214;27.936;2024-01-07T10:37:00;15.15;;;2.70;;
9763;SDS011;4921;43.214;27.936;2024-01-07T10:39:26;23.00;;;3.35;;
9763;SDS011;4921;43.214;27.936;2024-01-07T10:41:53;18.38;;;3.13;;
9763;SDS011;4921;43.214;27.936;2024-01-07T10:44:23;22.08;;;3.30;;
9763;SDS011;4921;43.214;27.936;2024-01-07T10:46:50;17.80;;;3.17;;
9763;SDS011;4921;43.214;27.936;2024-01-07T10:49:19;18.10;;;3.13;;
9763;SDS011;4921;43.214;27.936;2024-01-07T10:52:07;20.02;;;2.97;;
9763;SDS011;4921;43.214;27.936;2024-01-07T10:54:34;16.05;;;2.33;;
9763;SDS011;4921;43.214;27.936;2024-01-07T10:59:37;18.95;;;2.30;;
9763;SDS011;4921;43.214;27.936;2024-01-07T11:02:03;12.10;;;2.50;;
9763;SDS011;4921;43.214;27.936;2024-01-07T11:04:32;15.93;;;3.33;;
9763;SDS011;4921;43.214;27.936;2024-01-07T11:07:19;19.17;;;3.35;;
9763;SDS011;4921;43.214;27.936;2024-01-07T11:10:11;27.08;;;4.35;;
9763;SDS011;4921;43.214;27.936;2024-01-07T11:12:43;24.20;;;3.67;;
9763;SDS011;4921;43.214;27.936;2024-01-07T11:15:08;18.48;;;3.53;;
9763;SDS011;4921;43.214;27.936;2024-01-07T11:20:04;19.88;;;3.05;;
9763;SDS011;4921;43.214;27.936;2024-01-07T11:22:30;22.38;;;3.75;;
9763;SDS011;4921;43.214;27.936;2024-01-07T11:24:57;19.63;;;2.70;;
9763;SDS011;4921;43.214;27.936;2024-01-07T11:27:24;23.50;;;2.90;;
9763;SDS011;4921;43.214;27.936;2024-01-07T11:29:54;15.80;;;3.22;;
9763;SDS011;4921;43.214;27.936;2024-01-07T11:32:24;24.38;;;2.83;;
9763;SDS011;4921;43.214;27.936;2024-01-07T11:34:54;28.38;;;3.47;;
9763;SDS011;4921;43.214;27.936;2024-01-07T11:37:21;22.80;;;3.63;;
9763;SDS011;4921;43.214;27.936;2024-01-07T11:39:51;23.45;;;3.47;;
9763;SDS011;4921;43.214;27.936;2024-01-07T11:42:20;28.52;;;3.28;;
9763;SDS011;4921;43.214;27.936;2024-01-07T11:44:53;25.40;;;3.75;;
9763;SDS011;4921;43.214;27.936;2024-01-07T11:47:20;18.50;;;4.15;;
9763;SDS011;4921;43.214;27.936;2024-01-07T11:49:47;22.90;;;3.22;;
9763;SDS011;4921;43.214;27.936;2024-01-07T11:52:14;29.20;;;5.70;;
9763;SDS011;4921;43.214;27.936;2024-01-07T11:54:40;18.80;;;3.10;;
9763;SDS011;4921;43.214;27.936;2024-01-07T11:57:06;14.50;;;2.33;;
9763;SDS011;4921;43.214;27.936;2024-01-07T11:59:36;19.63;;;2.90;;
9763;SDS011;4921;43.214;27.936;2024-01-07T12:02:02;17.92;;;2.97;;
9763;SDS011;4921;43.214;27.936;2024-01-07T12:04:31;14.75;;;2.42;;
9763;SDS011;4921;43.214;27.936;2024-01-07T12:07:00;28.13;;;4.43;;
9763;SDS011;4921;43.214;27.936;2024-01-07T12:09:26;15.40;;;3.00;;
9763;SDS011;4921;43.214;27.936;2024-01-07T12:11:52;15.70;;;3.08;;
9763;SDS011;4921;43.214;27.936;2024-01-07T12:14:19;21.38;;;4.15;;
9763;SDS011;4921;43.214;27.936;2024-01-07T12:16:45;19.88;;;3.45;;
9763;SDS011;4921;43.214;27.936;2024-01-07T12:19:11;21.17;;;2.75;;
9763;SDS011;4921;43.214;27.936;2024-01-07T12:21:37;24.70;;;3.17;;
9763;SDS011;4921;43.214;27.936;2024-01-07T12:24:03;24.02;;;3.60;;
9763;SDS011;4921;43.214;27.936;2024-01-07T12:26:29;18.95;;;2.50;;
9763;SDS011;4921;43.214;27.936;2024-01-07T12:28:58;24.00;;;3.28;;
9763;SDS011;4921;43.214;27.936;2024-01-07T12:31:29;25.90;;;2.95;;
9763;SDS011;4921;43.214;27.936;2024-01-07T12:33:58;12.65;;;2.15;;
9763;SDS011;4921;43.214;27.936;2024-01-07T12:36:23;16.77;;;2.60;;
9763;SDS011;4921;43.214;27.936;2024-01-07T12:38:49;16.00;;;2.95;;
9763;SDS011;4921;43.214;27.936;2024-01-07T12:41:19;19.13;;;3.50;;
9763;SDS011;4921;43.214;27.936;2024-01-07T12:43:45;20.35;;;3.40;;
9763;SDS011;4921;43.214;27.936;2024-01-07T12:46:10;18.92;;;3.13;;
9763;SDS011;4921;43.214;27.936;2024-01-07T12:48:36;20.58;;;3.17;;
9763;SDS011;4921;43.214;27.936;2024-01-07T12:51:01;23.05;;;2.95;;
9763;SDS011;4921;43.214;27.936;2024-01-07T12:53:27;26.38;;;3.63;;
9763;SDS011;4921;43.214;27.936;2024-01-07T12:55:53;21.02;;;2.72;;
9763;SDS011;4921;43.214;27.936;2024-01-07T12:58:19;19.35;;;2.63;;
9763;SDS011;4921;43.214;27.936;2024-01-07T13:00:46;16.48;;;2.75;;
9763;SDS011;4921;43.214;27.936;2024-01-07T13:03:11;21.52;;;3.13;;
9763;SDS011;4921;43.214;27.936;2024-01-07T13:05:45;21.02;;;3.45;;
9763;SDS011;4921;43.214;27.936;2024-01-07T13:08:13;23.45;;;3.35;;
9763;SDS011;4921;43.214;27.936;2024-01-07T13:10:39;19.35;;;3.33;;
9763;SDS011;4921;43.214;27.936;2024-01-07T13:13:04;21.45;;;2.95;;
9763;SDS011;4921;43.214;27.936;2024-01-07T13:15:30;15.10;;;2.60;;
9763;SDS011;4921;43.214;27.936;2024-01-07T13:17:56;22.58;;;4.40;;
9763;SDS011;4921;43.214;27.936;2024-01-07T13:20:22;14.25;;;2.17;;
9763;SDS011;4921;43.214;27.936;2024-01-07T13:22:47;23.67;;;4.25;;
9763;SDS011;4921;43.214;27.936;2024-01-07T13:25:13;17.05;;;2.72;;
9763;SDS011;4921;43.214;27.936;2024-01-07T13:27:39;25.20;;;3.20;;
9763;SDS011;4921;43.214;27.936;2024-01-07T13:30:04;25.38;;;3.17;;
9763;SDS011;4921;43.214;27.936;2024-01-07T13:32:31;19.00;;;3.50;;
9763;SDS011;4921;43.214;27.936;2024-01-07T13:35:01;22.67;;;3.38;;
9763;SDS011;4921;43.214;27.936;2024-01-07T13:37:28;19.67;;;2.83;;
9763;SDS011;4921;43.214;27.936;2024-01-07T13:39:53;22.48;;;4.07;;
9763;SDS011;4921;43.214;27.936;2024-01-07T13:42:19;20.88;;;3.95;;
9763;SDS011;4921;43.214;27.936;2024-01-07T13:44:44;19.17;;;2.83;;
9763;SDS011;4921;43.214;27.936;2024-01-07T13:47:12;27.83;;;2.75;;
9763;SDS011;4921;43.214;27.936;2024-01-07T13:49:41;27.83;;;3.17;;
9763;SDS011;4921;43.214;27.936;2024-01-07T13:52:07;16.50;;;3.20;;
9763;SDS011;4921;43.214;27.936;2024-01-07T13:54:32;18.70;;;2.47;;
9763;SDS011;4921;43.214;27.936;2024-01-07T13:56:58;24.50;;;3.30;;
9763;SDS011;4921;43.214;27.936;2024-01-07T13:59:24;21.55;;;2.47;;
9763;SDS011;4921;43.214;27.936;2024-01-07T14:01:51;14.50;;;3.25;;
9763;SDS011;4921;43.214;27.936;2024-01-07T14:04:17;19.90;;;2.35;;
9763;SDS011;4921;43.214;27.936;2024-01-07T14:06:42;18.00;;;3.03;;
9763;SDS011;4921;43.214;27.936;2024-01-07T14:09:09;21.90;;;2.88;;
9763;SDS011;4921;43.214;27.936;2024-01-07T14:11:34;19.48;;;3.50;;
9763;SDS011;4921;43.214;27.936;2024-01-07T14:14:00;23.00;;;3.17;;
9763;SDS011;4921;43.214;27.936;2024-01-07T14:16:27;22.90;;;4.40;;
9763;SDS011;4921;43.214;27.936;2024-01-07T14:18:53;18.83;;;2.58;;
9763;SDS011;4921;43.214;27.936;2024-01-07T14:21:19;17.55;;;3.72;;
9763;SDS011;4921;43.214;27.936;2024-01-07T14:23:45;20.40;;;5.38;;
9763;SDS011;4921;43.214;27.936;2024-01-07T14:26:10;19.63;;;2.97;;
9763;SDS011;4921;43.214;27.936;2024-01-07T14:28:36;22.73;;;4.35;;
9763;SDS011;4921;43.214;27.936;2024-01-07T14:31:02;13.88;;;2.35;;
9763;SDS011;4921;43.214;27.936;2024-01-07T14:33:28;18.52;;;2.63;;
9763;SDS011;4921;43.214;27.936;2024-01-07T14:35:54;14.50;;;2.55;;
9763;SDS011;4921;43.214;27.936;2024-01-07T14:38:20;20.67;;;3.05;;
9763;SDS011;4921;43.214;27.936;2024-01-07T14:40:48;23.02;;;3.00;;
9763;SDS011;4921;43.214;27.936;2024-01-07T14:43:16;15.38;;;3.90;;
9763;SDS011;4921;43.214;27.936;2024-01-07T14:45:42;17.45;;;2.65;;
9763;SDS011;4921;43.214;27.936;2024-01-07T14:48:08;22.23;;;2.88;;
9763;SDS011;4921;43.214;27.936;2024-01-07T14:50:34;21.02;;;3.70;;
9763;SDS011;4921;43.214;27.936;2024-01-07T14:53:00;14.48;;;3.13;;